Map

Track Data

SID SEASON NUMBER BASIN SUBBASIN NAME ISO_TIME NATURE LAT LON WMO_WIND WMO_PRES WMO_AGENCY TRACK_TYPE DIST2LAND LANDFALL IFLAG USA_AGENCY USA_ATCF_ID USA_LAT USA_LON USA_RECORD USA_STATUS USA_WIND USA_PRES USA_SSHS USA_R34_NE USA_R34_SE USA_R34_SW USA_R34_NW USA_R50_NE USA_R50_SE USA_R50_SW USA_R50_NW USA_R64_NE USA_R64_SE USA_R64_SW USA_R64_NW USA_POCI USA_ROCI USA_RMW USA_EYE TOKYO_LAT TOKYO_LON TOKYO_GRADE TOKYO_WIND TOKYO_PRES TOKYO_R50_DIR TOKYO_R50_LONG TOKYO_R50_SHORT TOKYO_R30_DIR TOKYO_R30_LONG TOKYO_R30_SHORT TOKYO_LAND CMA_LAT CMA_LON CMA_CAT CMA_WIND CMA_PRES HKO_LAT HKO_LON HKO_CAT HKO_WIND HKO_PRES NEWDELHI_LAT NEWDELHI_LON NEWDELHI_GRADE NEWDELHI_WIND NEWDELHI_PRES NEWDELHI_CI NEWDELHI_DP NEWDELHI_POCI REUNION_LAT REUNION_LON REUNION_TYPE REUNION_WIND REUNION_PRES REUNION_TNUM REUNION_CI REUNION_RMW REUNION_R34_NE REUNION_R34_SE REUNION_R34_SW REUNION_R34_NW REUNION_R50_NE REUNION_R50_SE REUNION_R50_SW REUNION_R50_NW REUNION_R64_NE REUNION_R64_SE REUNION_R64_SW REUNION_R64_NW BOM_LAT BOM_LON BOM_TYPE BOM_WIND BOM_PRES BOM_TNUM BOM_CI BOM_RMW BOM_R34_NE BOM_R34_SE BOM_R34_SW BOM_R34_NW BOM_R50_NE BOM_R50_SE BOM_R50_SW BOM_R50_NW BOM_R64_NE BOM_R64_SE BOM_R64_SW BOM_R64_NW BOM_ROCI BOM_POCI BOM_EYE BOM_POS_METHOD BOM_PRES_METHOD NADI_LAT NADI_LON NADI_CAT NADI_WIND NADI_PRES WELLINGTON_LAT WELLINGTON_LON WELLINGTON_WIND WELLINGTON_PRES DS824_LAT DS824_LON DS824_STAGE DS824_WIND DS824_PRES TD9636_LAT TD9636_LON TD9636_STAGE TD9636_WIND TD9636_PRES TD9635_LAT TD9635_LON TD9635_WIND TD9635_PRES TD9635_ROCI NEUMANN_LAT NEUMANN_LON NEUMANN_CLASS NEUMANN_WIND NEUMANN_PRES MLC_LAT MLC_LON MLC_CLASS MLC_WIND MLC_PRES USA_GUST BOM_GUST BOM_GUST_PER REUNION_GUST REUNION_GUST_PER USA_SEAHGT USA_SEARAD_NE USA_SEARAD_SE USA_SEARAD_SW USA_SEARAD_NW STORM_SPEED STORM_DIR
1978347N10127 1978 129 WP MM NOT_NAMED 1978-12-13 00:00:00 TS 10.0000 126.500 main 78 70 __O___________ -1 10.0000 126.500 0 19 1006 12 297
1978347N10127 1978 129 WP MM NOT_NAMED 1978-12-13 03:00:00 TS 10.2778 125.953 main 76 31 __P___________ -1 10.2778 125.953 0 19 1006 11 297
1978347N10127 1978 129 WP MM NOT_NAMED 1978-12-13 06:00:00 TS 10.5000 125.500 main 31 0 __O___________ -1 10.5000 125.500 0 19 1006 8 295
1978347N10127 1978 129 WP MM NOT_NAMED 1978-12-13 09:00:00 TS 10.6298 125.192 main 0 0 __P___________ -1 10.6298 125.192 0 19 1006 6 289
1978347N10127 1978 129 WP MM NOT_NAMED 1978-12-13 12:00:00 TS 10.7000 124.900 main 0 0 __O___________ -1 10.7000 124.900 0 19 1006 7 281
1978347N10127 1978 129 WP MM NOT_NAMED 1978-12-13 15:00:00 TS 10.7726 124.465 main 11 0 __P___________ -1 10.7726 124.465 0 19 1005 9 276
1978347N10127 1978 129 WP MM NOT_NAMED 1978-12-13 18:00:00 TS 10.8000 124.000 main 0 0 __O___________ -1 10.8000 124.000 0 19 1005 9 270
1978347N10127 1978 129 WP MM NOT_NAMED 1978-12-13 21:00:00 TS 10.7724 123.585 main 0 0 __P___________ -1 10.7724 123.585 0 21 1004 8 263
1978347N10127 1978 129 WP MM NOT_NAMED 1978-12-14 00:00:00 TS 10.7000 123.200 main 0 0 __O___________ -1 10.7000 123.200 1 23 1004 8 258
1978347N10127 1978 129 WP MM NOT_NAMED 1978-12-14 03:00:00 TS 10.6150 122.828 main 10 10 __P___________ -1 10.6150 122.828 1 23 1004 7 254
1978347N10127 1978 129 WP MM NOT_NAMED 1978-12-14 06:00:00 TS 10.5000 122.500 main 22 22 __O___________ -1 10.5000 122.500 1 23 1004 6 243
1978347N10127 1978 129 WP MM NOT_NAMED 1978-12-14 09:00:00 TS 10.3423 122.273 main 31 15 __P___________ -1 10.3423 122.273 1 23 1004 6 239
1978347N10127 1978 129 WP MM NOT_NAMED 1978-12-14 12:00:00 TS 10.2000 122.000 main 22 22 __O___________ -1 10.2000 122.000 1 23 1004 8 251
1978347N10127 1978 129 WP MM NOT_NAMED 1978-12-14 15:00:00 TS 10.0975 121.552 main 46 46 __P___________ -1 10.0975 121.552 1 23 1004 10 264
1978347N10127 1978 129 WP MM NOT_NAMED 1978-12-14 18:00:00 TS 10.1000 121.000 main 104 79 __O___________ -1 10.1000 121.000 1 23 1004 12 279
1978347N10127 1978 129 WP MM NOT_NAMED 1978-12-14 21:00:00 TS 10.2776 120.385 main 79 10 __P___________ -1 10.2776 120.385 1 23 1004 12 289
1978347N10127 1978 129 WP MM NOT_NAMED 1978-12-15 00:00:00 TS 10.5000 119.800 main 10 0 __O___________ -1 10.5000 119.800 1 23 1004 10 289
1978347N10127 1978 129 WP MM NOT_NAMED 1978-12-15 03:00:00 TS 10.6073 119.385 main 0 0 __P___________ -1 10.6073 119.385 1 23 1004 8 284
1978347N10127 1978 129 WP MM NOT_NAMED 1978-12-15 06:00:00 TS 10.7000 119.000 main 32 32 __O___________ -1 10.7000 119.000 1 23 1004 9 285
1978347N10127 1978 129 WP MM NOT_NAMED 1978-12-15 09:00:00 TS 10.8501 118.493 main 86 86 __P___________ -1 10.8501 118.493 1 23 1004 10 287
1978347N10127 1978 129 WP MM NOT_NAMED 1978-12-15 12:00:00 TS 11.0000 118.000 main 133 133 __O___________ -1 11.0000 118.000 1 23 1004 9 286
1978347N10127 1978 129 WP MM NOT_NAMED 1978-12-15 15:00:00 TS 11.1074 117.597 main 172 172 __P___________ -1 11.1074 117.597 1 23 1004 7 286
1978347N10127 1978 129 WP MM NOT_NAMED 1978-12-15 18:00:00 TS 11.2000 117.300 main 205 205 __O___________ -1 11.2000 117.300 1 23 1004 5 291
1978347N10127 1978 129 WP MM NOT_NAMED 1978-12-15 21:00:00 TS 11.2849 117.120 main 229 229 __P___________ -1 11.2849 117.120 1 23 1004 4 304
1978347N10127 1978 129 WP MM NOT_NAMED 1978-12-16 00:00:00 TS 11.4000 117.000 main 244 244 __O___________ -1 11.4000 117.000 1 23 1004 4 322
1978347N10127 1978 129 WP MM NOT_NAMED 1978-12-16 03:00:00 TS 11.6075 116.865 main 267 267 __P___________ -1 11.6075 116.865 1 23 1004 5 324
1978347N10127 1978 129 WP MM NOT_NAMED 1978-12-16 06:00:00 TS 11.8000 116.700 main 298 298 __O___________ -1 11.8000 116.700 1 23 1004 5 306
1978347N10127 1978 129 WP MM NOT_NAMED 1978-12-16 09:00:00 TS 11.8950 116.458 main 322 322 __P___________ -1 11.8950 116.458 1 21 1005 5 282
1978347N10127 1978 129 WP MM NOT_NAMED 1978-12-16 12:00:00 TS 11.9000 116.200 main 348 348 __O___________ -1 11.9000 116.200 0 19 1006 4 262
1978347N10127 1978 129 WP MM NOT_NAMED 1978-12-16 15:00:00 TS 11.8299 116.008 main 351 348 __P___________ -1 11.8299 116.008 0 19 1006 4 243
1978347N10127 1978 129 WP MM NOT_NAMED 1978-12-16 18:00:00 TS 11.7000 115.800 main 355 353 __O___________ -1 11.7000 115.800 0 19 1006 6 241
1978347N10127 1978 129 WP MM NOT_NAMED 1978-12-16 21:00:00 TS 11.5575 115.507 main 368 360 __P___________ -1 11.5575 115.507 0 19 1006 7 243
1978347N10127 1978 129 WP MM NOT_NAMED 1978-12-17 00:00:00 TS 11.4000 115.200 main 375 375 __O___________ -1 11.4000 115.200 0 19 1006 7 238
1978347N10127 1978 129 WP MM NOT_NAMED 1978-12-17 03:00:00 TS 11.2125 114.942 main 384 384 __P___________ -1 11.2125 114.942 0 19 1006 6 239
1978347N10127 1978 129 WP MM NOT_NAMED 1978-12-17 06:00:00 TS 11.1000 114.700 main 393 393 __O___________ -1 11.1000 114.700 0 19 1006 5 265
1978347N10127 1978 129 WP MM NOT_NAMED 1978-12-17 09:00:00 TS 11.1700 114.458 main 417 417 __P___________ -1 11.1700 114.458 0 19 1006 5 292
1978347N10127 1978 129 WP MM NOT_NAMED 1978-12-17 12:00:00 TS 11.3000 114.200 main 450 450 __O___________ -1 11.3000 114.200 0 19 1006 6 289
1978347N10127 1978 129 WP MM NOT_NAMED 1978-12-17 15:00:00 TS 11.3575 113.900 main 483 466 __P___________ -1 11.3575 113.900 0 19 1006 6 280
1978347N10127 1978 129 WP MM NOT_NAMED 1978-12-17 18:00:00 TS 11.4000 113.600 main 466 445 __O___________ -1 11.4000 113.600 0 19 1006 6 279
1978347N10127 1978 129 WP MM NOT_NAMED 1978-12-17 21:00:00 TS 11.4475 113.338 main 434 410 __P___________ -1 11.4475 113.338 0 19 1006 5 282
1978347N10127 1978 129 WP MM NOT_NAMED 1978-12-18 00:00:00 TS 11.5000 113.100 main 410 __O___________ -1 11.5000 113.100 0 19 1006 5 283

Digital Typhoon Data and Search

About IBTrACS Database

This database is a web-friendly format of International Best Track Archive for Climate Stewardship (IBTrACS), a global best track data archive curated by NOAA dating back to 1842.

Updated: 2021-11-26